Terminal Aerodrome Forecast
Issued by NWS

Home | Current Version | Previous Version | Graphics & Text | Print | Product List | Glossary On
Versions: 1 2 3 4 5 6 7 8 9 10 11 12 13 14 15 16 17 18 19 20 21 22 23 24
000
FTUS43 KGRB 291400 AAA
TAFAUW
TAF AMD
KAUW 291438Z 2915/3012 12007KT 2SM BR OVC003
      TEMPO 2915/2917 1/2SM -SHRA FG OVC007
     FM291700 18008KT P6SM VCSH BKN009 OVC025
     FM292100 21010KT P6SM VCSH SCT015 BKN050
     FM300000 VRB03KT 4SM SHRA BR OVC015=

USA.gov is the U.S. government's official web portal to all federal, state and local government web resources and services.